Flight Track Log - Related Links

Times and Time Zones

All times are in EDT time to prevent confusion due to time zone crossing. See the KAP46 flight status page for this flight to view local times or setup timezone preferences in your user account.

Time Position Orientation Groundspeed Altitude Reporting Facility
EDT Latitude Longitude Course Direction KTS MPH feet Rate Location/Type
Sat 07:37:40 AM 44.6694 -74.7489 168° South 150 173 5,400  Level Boston Center
Sat 07:38:41 AM 44.6364 -74.7389 168° South 144 166 5,900 443 Climbing Boston Center
Sat 07:39:42 AM 44.5969 -74.7258 167° South 144 166 6,300 397 Climbing Boston Center
Sat 07:40:42 AM 44.5619 -74.7039 156° South 144 166 6,700 397 Climbing Boston Center
Sat 07:41:43 AM 44.5269 -74.6822 156° South 144 166 7,100 407 Climbing Boston Center
Sat 07:42:40 AM 44.4878 -74.6633 161° South 149 171 7,500 254 Climbing Boston Center
Sat 07:43:41 AM 44.4486 -74.6444 161° South 149 171 7,600 50 Climbing Boston Center
Sat 07:44:40 AM 44.4053 -74.6194 158° South 155 178 7,600 -50 Level Boston Center
Sat 07:45:41 AM 44.3600 -74.5975 161° South 167 192 7,500  Descending Boston Center
Sat 07:46:40 AM 44.3164 -74.5786 163° South 167 192 7,600 50 Climbing Boston Center
Sat 07:47:40 AM 44.2753 -74.5567 159° South 167 192 7,600 -50 Level Boston Center
Sat 07:48:41 AM 44.2319 -74.5350 160° South 161 185 7,500 -49 Descending Boston Center
Sat 07:49:42 AM 44.1906 -74.5133 159° South 166 191 7,500  Level Boston Center
Sat 07:50:40 AM 44.1492 -74.4914 159° South 166 191 7,500  Level Boston Center
Sat 07:51:40 AM 44.1078 -74.4728 162° South 161 185 7,500  Level Boston Center
Sat 07:52:41 AM 44.0667 -74.4511 159° South 161 185 7,500  Level Boston Center
Sat 07:53:41 AM 44.0275 -74.4294 158° South 161 185 7,500  Level Boston Center
Sat 07:54:42 AM 43.9861 -74.4108 162° South 161 185 7,500  Level Boston Center
Sat 07:55:42 AM 43.9428 -74.3892 160° South 161 185 7,500  Level Boston Center
Sat 07:56:42 AM 43.9014 -74.3706 162° South 161 185 7,500  Level Boston Center
Sat 07:57:40 AM 43.8600 -74.3492 160° South 166 191 7,500  Level Boston Center
Sat 07:58:42 AM 43.8186 -74.3278 160° South 166 191 7,500  Level Boston Center
Sat 07:59:40 AM 43.7772 -74.3092 162° South 166 191 7,500  Level Boston Center
Sat 08:00:41 AM 43.7381 -74.2878 158° South 166 191 7,500  Level Boston Center
Sat 08:01:43 AM 43.6906 -74.2633 160° South 166 191 7,500  Level Boston Center
Sat 08:02:40 AM 43.6469 -74.2419 160° South 166 191 7,500  Level Boston Center
Sat 08:03:42 AM 43.6078 -74.2236 161° South 166 191 7,500  Level Boston Center
Sat 08:04:42 AM 43.5644 -74.2022 160° South 166 191 7,500  Level Boston Center
Sat 08:05:42 AM 43.5250 -74.1811 159° South 161 185 7,500  Level Boston Center
Sat 08:06:42 AM 43.4836 -74.1628 162° South 161 185 7,500  Level Boston Center
Sat 08:07:09 AM 43.4650 -74.1536 160° South 161 185 7,500  Level Boston Center
Sat 08:07:40 AM 43.4403 -74.1414 160° South 161 185 7,500  Level Boston Center
Sat 08:07:52 AM 43.4339 -74.1383 161° South 160 184 7,500  Level Boston Center
Sat 08:08:41 AM 43.3989 -74.1231 162° South 161 185 7,500  Level Boston Center
Sat 08:08:53 AM 43.3906 -74.1172 153° Southeast 159 183 7,500  Level Boston Center
Sat 08:09:41 AM 43.3553 -74.0992 160° South 166 191 7,500  Level Boston Center
Sat 08:09:47 AM 43.3533 -74.0992 180° South 159 183 7,500 -98 Level Boston Center
Sat 08:10:42 AM 43.3139 -74.0781 159° South 166 191 7,400 -98 Descending Boston Center
Sat 08:10:48 AM 43.3119 -74.0781 180° South 162 186 7,400 -305 Level Boston Center
Sat 08:11:41 AM 43.2706 -74.0569 160° South 166 191 7,100 -407 Descending Boston Center
Sat 08:11:47 AM 43.2642 -74.0567 178° South 174 200 7,000 -98 Descending Boston Center
Sat 08:12:42 AM 43.2247 -74.0442 167° South 166 191 7,000  Level Boston Center
Sat 08:12:54 AM 43.2144 -74.0469 191° South 171 197 7,000  Level Boston Center
Sat 08:13:52 AM 43.1769 -74.0431 176° South 166 191 7,000  Level Boston Center
Sat 08:13:55 AM 43.1664 -74.0456 190° South 166 191 7,000  Level Boston Center
Sat 08:14:53 AM 43.1228 -74.0417 176° South 166 191 7,000  Level Boston Center
Sat 08:15:02 AM 43.1164 -74.0442 196° South 164 189 7,000  Level Boston Center
Sat 08:15:53 AM 43.0811 -74.0433 179° South 166 191 7,000  Level Boston Center
Sat 08:15:56 AM 43.0747 -74.0431 178° South 162 186 7,000  Level Boston Center
Sat 08:16:57 AM 43.0311 -74.0419 179° South 162 186 7,000  Level Boston Center
Sat 08:17:55 AM 42.9914 -74.0411 179° South 161 185 7,000  Level Boston Center
Sat 08:17:58 AM 42.9853 -74.0436 197° South 161 185 7,000 -103 Level Boston Center
Sat 08:18:53 AM 42.9436 -74.0425 179° South 161 185 6,900 -98 Descending Boston Center
Sat 08:18:59 AM 42.9436 -74.0425 179° South 159 183 6,900 -393 Level Boston Center
Sat 08:19:54 AM 42.9039 -74.0417 179° South 161 185 6,500 -517 Descending Boston Center
Sat 08:19:57 AM 42.8978 -74.0414 178° South 159 183 6,400 -610 Descending Boston Center
Sat 08:20:53 AM 42.8539 -74.0403 179° South 161 185 5,900 -581 Descending Boston Center
Sat 08:20:59 AM 42.8478 -74.0400 178° South 163 188 5,800 -500 Descending Boston Center
Sat 08:21:53 AM 42.8103 -74.0392 179° South 161 185 5,400 -500 Descending Boston Center
Sat 08:21:59 AM 42.8039 -74.0389 178° South 163 188 5,300 -261 Descending Boston Center
Sat 08:23:02 AM 42.7622 -74.0350 176° South 158 182 5,100 -97 Descending Boston Center
Sat 08:24:03 AM 42.7206 -74.0369 182° South 138 159 5,100  Level Boston Center
Sat 08:25:03 AM 42.6853 -74.0331 175° South 134 154 5,100  Level Boston Center
Sat 08:26:04 AM 42.6436 -74.0292 176° South 133 153 5,100  Level Boston Center
Sat 08:27:05 AM 42.6189 -74.0003 139° Southeast 128 147 5,100  Level Boston Center
Sat 08:28:05 AM 42.6008 -73.9575 120° Southeast 127 146 5,100  Level Boston Center
Sat 08:29:05 AM 42.5908 -73.9122 107° East 129 148 5,100  Level Boston Center
Sat 08:30:06 AM 42.5747 -73.8667 116° Southeast 130 150 5,100  Level Boston Center
Sat 08:31:06 AM 42.5589 -73.8183 114° Southeast 129 148 5,100  Level Boston Center
Sat 08:32:06 AM 42.5383 -73.7786 125° Southeast 131 151 5,100  Level Boston Center
Sat 08:33:08 AM 42.5133 -73.7781 179° South 145 167 5,100  Level Boston Center
Sat 08:34:08 AM 42.5444 -73.7956 337° Northwest 138 159 5,100  Level Boston Center
Sat 08:35:09 AM 42.5633 -73.7764 37° Northeast 127 146 5,100  Level Boston Center
Sat 08:36:15 AM 42.5219 -73.7614 165° South 130 150 5,100  Level Boston Center
Sat 08:37:17 AM 42.4867 -73.7578 176° South 134 154 5,100  Level Boston Center
Sat 08:38:24 AM 42.4450 -73.7511 173° South 135 155 5,100  Level Boston Center
Sat 08:39:11 AM 42.4136 -73.7533 183° South 136 157 5,100  Level Boston Center
Sat 08:40:17 AM 42.3864 -73.7781 214° Southwest 145 167 5,100  Level Boston Center
Sat 08:41:18 AM 42.4214 -73.7958 339° North 137 158 5,100  Level Boston Center
Sat 08:42:19 AM 42.4589 -73.8050 350° North 137 158 5,100  Level Boston Center
Sat 08:43:13 AM 42.4944 -73.8000 North 137 158 5,100  Level Boston Center
Sat 08:44:20 AM 42.5381 -73.8011 359° North 138 159 5,100  Level Boston Center
Sat 08:45:20 AM 42.5531 -73.7761 51° Northeast 131 151 5,100  Level Boston Center
Sat 08:46:15 AM 42.5197 -73.7669 169° South 130 150 5,100  Level Boston Center
Sat 08:47:16 AM 42.4822 -73.7661 179° South 134 154 5,100  Level Boston Center
Sat 08:48:18 AM 42.4450 -73.7569 170° South 135 155 5,100  Level Boston Center
Sat 08:49:19 AM 42.4094 -73.7533 176° South 136 157 5,100  Level Boston Center
Sat 08:50:19 AM 42.3986 -73.7811 242° Southwest 147 169 5,100  Level Boston Center
Sat 08:51:17 AM 42.4361 -73.7961 344° North 139 160 5,100  Level Boston Center
Sat 08:52:19 AM 42.4778 -73.8025 354° North 139 160 5,100  Level Boston Center
Sat 08:53:19 AM 42.5153 -73.7978 North 139 160 5,100  Level Boston Center
Sat 08:54:20 AM 42.5528 -73.7900 North 141 162 5,100  Level Boston Center
Sat 08:55:20 AM 42.5261 -73.7669 147° Southeast 131 151 5,100  Level Boston Center
Sat 08:56:22 AM 42.4886 -73.7606 173° South 135 155 5,100  Level Boston Center
Sat 08:57:22 AM 42.4533 -73.7514 169° South 135 155 5,100  Level Boston Center
Sat 08:58:25 AM 42.4136 -73.7506 179° South 136 157 5,100  Level Boston Center
Sat 08:59:23 AM 42.3761 -73.7525 182° South 140 161 5,100  Level Boston Center
Sat 09:00:24 AM 42.3986 -73.7839 314° West 138 159 5,100  Level Boston Center
Sat 09:01:24 AM 42.4361 -73.7961 346° North 136 157 5,100  Level Boston Center
Sat 09:02:25 AM 42.4736 -73.7969 359° North 137 158 5,100  Level Boston Center
Sat 09:03:28 AM 42.5111 -73.8006 356° North 138 159 5,100  Level Boston Center
Sat 09:04:28 AM 42.5486 -73.7983 North 137 158 5,100  Level Boston Center
Sat 09:05:28 AM 42.5344 -73.7700 124° Southeast 129 148 5,100  Level Boston Center
Sat 09:06:29 AM 42.4969 -73.7608 170° South 131 151 5,100  Level Boston Center
Sat 09:07:30 AM 42.4594 -73.7572 176° South 133 153 5,100  Level Boston Center
Sat 09:08:37 AM 42.4200 -73.7478 170° South 134 154 5,100  Level Boston Center
Sat 09:09:38 AM 42.3847 -73.7414 172° South 134 154 5,100  Level Boston Center
Sat 09:10:38 AM 42.3883 -73.7725 279° West 138 159 5,100  Level Boston Center
Sat 09:11:39 AM 42.4258 -73.7872 344° North 135 155 5,100  Level Boston Center
Sat 09:12:33 AM 42.4589 -73.7936 352° North 136 157 5,100  Level Boston Center
Sat 09:13:34 AM 42.4967 -73.7944 359° North 138 159 5,100  Level Boston Center
Sat 09:14:35 AM 42.5361 -73.7981 356° North 138 159 5,100  Level Boston Center
Sat 09:15:36 AM 42.5511 -73.7731 51° Northeast 131 151 5,100 -149 Level Boston Center
Sat 09:16:36 AM 42.5242 -73.7417 139° Southeast 135 155 4,800 -300 Descending Boston Center
Sat 09:17:36 AM 42.4847 -73.7267 164° South 161 185 4,500 -496 Descending Boston Center
Sat 09:18:37 AM 42.4553 -73.7542 215° Southwest 176 203 3,800 -590 Descending Boston Center
Sat 09:19:38 AM 42.4967 -73.7889 328° Northwest 171 197 3,300 -397 Descending Boston Center
Sat 09:20:38 AM 42.5403 -73.8011 348° North 159 183 3,000 -198 Descending Boston Center
Sat 09:21:39 AM 42.5819 -73.8019 359° North 142 163 2,900 -344 Descending Boston Center
Sat 09:22:40 AM 42.6278 -73.8003 North 163 188 2,300 -541 Descending Boston Center
Sat 09:23:41 AM 42.6672 -73.8039 356° North 150 173 1,800 -624 Descending Boston Center
Sat 09:24:45 AM 42.7069 -73.8047 359° North 108 124 1,000 -750 Descending Boston Center

Login

Don't have an account? Register now (free) for customized features, flight alerts, and more!